Saturday, October 20, 2018, 5:38 AM CDT
Back to Local

KORD, Chicago O'hare International

Location: Des Plaines, IL, United States Lat: 41.983
Local Time: 5:38 AM CDT (10:38 GMT) Lon: -87.917
Time Zone: US/Central Elev: 669 ft

Show me the last for .
Show Decoded

2018-10-20 04:51 METAR KORD 200951Z 28009KT 10SM CLR 08/02 A2985 RMK AO2 SLP111 T00830022 =
2018-10-20 03:51 METAR KORD 200851Z 28008KT 10SM CLR 09/03 A2985 RMK AO2 SLP110 T00890028 50001 =
2018-10-20 02:51 METAR KORD 200751Z 25007KT 10SM CLR 09/04 A2986 RMK AO2 SLP113 T00940044 =
2018-10-20 01:51 METAR KORD 200651Z 26007KT 10SM CLR 10/06 A2986 RMK AO2 SLP111 T01000061 =
2018-10-20 00:51 METAR KORD 200551Z 25007KT 10SM CLR 10/08 A2985 RMK AO2 SLP109 60000 T01000078
                 10122 20100 401220078 51005 =
2018-10-19 23:51 METAR KORD 200451Z 25006KT 10SM CLR 11/09 A2984 RMK AO2 SLP107 T01060089 =
2018-10-19 22:51 METAR KORD 200351Z 25008KT 10SM FEW070 12/09 A2984 RMK AO2 SLP105 T01170094 =
2018-10-19 21:51 METAR KORD 200251Z 25010KT 10SM SCT023 SCT050 12/09 A2983 RMK AO2 SLP103 60000
                 T01220094 53003 =
2018-10-19 20:51 METAR KORD 200151Z 24010G18KT 10SM SCT041 BKN049 12/09 A2982 RMK AO2 SLP100
                 T01220094 =
2018-10-19 19:51 METAR KORD 200051Z 23015G21KT 10SM FEW018 SCT045 12/09 A2982 RMK AO2 DZE40
                 SLP100 P0000 T01220089 =
2018-10-19 18:51 METAR KORD 192351Z 22012G21KT 10SM -DZ FEW012 BKN031 OVC040 11/09 A2982 RMK AO2
                 DZB22 SLP100 P0000 60002 T01110089 10111 20100 56008 =
2018-10-19 18:44 METAR KORD 192344Z 23013G21KT 10SM -DZ FEW010 BKN028 OVC038 11/09 A2982 RMK AO2
                 DZB22 P0000 T01110089 =
2018-10-19 17:51 METAR KORD 192251Z 23011G23KT 10SM BKN010 OVC014 11/09 A2983 RMK AO2 SLP103
                 T01060089 =
2018-10-19 17:23 METAR KORD 192223Z 22015G21KT 5SM BR BKN010 OVC016 11/09 A2982 RMK AO2 T01060089
                 =
2018-10-19 16:51 METAR KORD 192151Z 22014G25KT 4SM BR BKN011 OVC013 11/09 A2984 RMK AO2 PK WND
                 23026/2104 RAB40E50 SLP105 P0000 T01060089 =
2018-10-19 16:41 METAR KORD 192141Z 21014G22KT 4SM -RA BR OVC011 11/09 A2983 RMK AO2 PK WND
                 23026/2104 RAB40 P0000 T01060089 =
2018-10-19 16:38 METAR KORD 192138Z 22013G22KT 5SM BR OVC013 11/08 A2984 RMK AO2 PK WND
                 23026/2104 T01060083 =
2018-10-19 15:51 METAR KORD 192051Z 21013G22KT 10SM BKN016 BKN020 BKN070 11/08 A2985 RMK AO2 PK
                 WND 22028/2030 RAE1955 SLP108 P0000 60002 T01110078 56024 =
2018-10-19 15:49 METAR KORD 192049Z 22012G23KT 10SM BKN017 BKN043 BKN070 11/08 A2985 RMK AO2 PK
                 WND 22028/2030 RAE1955 P0000 =
2018-10-19 14:51 METAR KORD 191951Z 22010G21KT 10SM -RA BKN041 OVC055 11/07 A2988 RMK AO2
                 RAB1852E24B45 SLP118 P0000 T01110067 =
2018-10-19 13:51 METAR KORD 191851Z 21014G21KT 10SM SCT049 BKN060 OVC080 11/07 A2992 RMK AO2
                 RAE31 SLP134 P0002 T01060067 =
2018-10-19 12:51 METAR KORD 191751Z 21012KT 10SM -RA OVC060 10/06 A2996 RMK AO2 SLP147 P0001
                 60001 T01000061 10111 20083 58039 =
2018-10-19 11:51 METAR KORD 191651Z 20012G20KT 8SM -RA SCT065 OVC080 10/05 A3001 RMK AO2 SLP164
                 P0000 T01000050 =
2018-10-19 10:51 METAR KORD 191551Z 21011G19KT 10SM -RA SCT090 OVC110 11/02 A3006 RMK AO2 RAB37
                 SLP182 P0000 T01060022 =
2018-10-19 09:51 METAR KORD 191451Z 21011G18KT 10SM SCT110 OVC130 10/01 A3008 RMK AO2 SLP186
                 T01000006 58019 =
2018-10-19 08:51 METAR KORD 191351Z 21012KT 10SM FEW120 OVC150 09/01 A3011 RMK AO2 SLP196
                 T00940006 =
2018-10-19 07:51 METAR KORD 191251Z 21013G19KT 10SM BKN160 OVC200 09/00 A3012 RMK AO2 SLP202
                 T00890000 =
2018-10-19 06:51 METAR KORD 191151Z 21007KT 10SM BKN160 BKN250 08/00 A3014 RMK AO2 SLP206
                 T00830000 10089 20078 58023 =
2018-10-19 05:51 METAR KORD 191051Z 21012KT 10SM BKN210 BKN250 08/M01 A3016 RMK AO2 SLP215
                 T00781006 =

Support USWX by starting your Amazon purchase here.